PH-0041 weather

Philippine Stock Exchange East Tower Heliport
Pasig, Philippines

Public forecast

Using degrees Celsius for public forecast. Weather courtesy of forecast.io.

METAR (pilot weather report)

Closest report is Ninoy Aquino International Airport, 5.1 nm (9.4 km) SSW. Retrieved 2019/09/23 14:00 UTC (24 minutes ago):

RPLL 231400Z 12003KT 090V150 9999 FEW025 BKN100 29/25 Q1014 NOSIG RMK A2991

TAF (pilot weather forecast)

Closest forecast is Ninoy Aquino International Airport, 5.1 nm (9.4 km) SSW. Retrieved 2019/09/23 12:00 UTC (2 hours ago):

TAF RPLL 231100Z 2312/2418 11006KT 9999 FEW023 SCT300 TX33/2406Z TN26/2321Z TEMPO 2312/2318 VRB02KT VCSH FEW023 SCT100 TEMPO 2318/2324 VRB02KT TEMPO 2406/2412 12010KT VCTS FEW022CB SCT023 BKN250